createdAt,value
2017-09-26T00:00:29.427Z,75.62
2017-09-26T00:02:56.916Z,75.46
2017-09-26T00:05:24.432Z,75.59
2017-09-26T00:07:51.888Z,75.68
2017-09-26T00:10:19.385Z,75.85
2017-09-26T00:12:46.860Z,75.86
2017-09-26T00:15:14.320Z,75.72
2017-09-26T00:17:41.830Z,75.67
2017-09-26T00:20:09.285Z,75.65
2017-09-26T00:22:36.768Z,75.68
2017-09-26T00:25:04.237Z,75.75
2017-09-26T00:27:31.748Z,75.65
2017-09-26T00:29:59.253Z,75.40
2017-09-26T00:32:26.710Z,75.18
2017-09-26T00:34:54.201Z,75.32
2017-09-26T00:37:21.676Z,75.39
2017-09-26T00:39:49.182Z,75.67
2017-09-26T00:42:16.656Z,75.36
2017-09-26T00:44:44.101Z,74.95
2017-09-26T00:47:11.513Z,75.16
2017-09-26T00:49:38.970Z,75.14
2017-09-26T00:52:06.378Z,75.16
2017-09-26T00:54:34.601Z,75.48
2017-09-26T00:57:02.045Z,75.40
2017-09-26T00:59:29.442Z,75.23
2017-09-26T01:01:56.880Z,75.45
2017-09-26T01:04:24.314Z,75.63
2017-09-26T01:09:52.467Z,75.57
2017-09-26T01:12:19.919Z,75.49
2017-09-26T01:14:47.381Z,75.76
2017-09-26T01:17:14.879Z,75.68
2017-09-26T01:19:42.347Z,76.25
2017-09-26T01:22:10.088Z,76.76
2017-09-26T01:24:37.586Z,76.78
2017-09-26T01:27:05.062Z,76.50
2017-09-26T01:29:32.578Z,76.34
2017-09-26T01:32:00.060Z,76.38
2017-09-26T01:34:27.533Z,76.27
2017-09-26T01:36:55.008Z,75.95
2017-09-26T01:39:22.489Z,76.02
2017-09-26T01:41:49.964Z,76.37
2017-09-26T01:44:17.442Z,75.92
2017-09-26T01:46:44.892Z,75.53
2017-09-26T01:49:12.373Z,75.46
2017-09-26T01:51:39.892Z,75.31
2017-09-26T01:54:07.378Z,75.25
2017-09-26T01:56:36.797Z,75.53
2017-09-26T01:59:05.064Z,75.44
2017-09-26T02:01:32.548Z,75.59
2017-09-26T02:04:00.034Z,75.57
2017-09-26T02:06:27.526Z,75.69
2017-09-26T02:08:54.996Z,75.82
2017-09-26T02:11:22.511Z,75.83
2017-09-26T02:13:49.982Z,75.89
2017-09-26T02:16:17.441Z,75.77
2017-09-26T02:18:44.934Z,75.87
2017-09-26T02:21:12.391Z,75.90
2017-09-26T02:23:39.890Z,75.69
2017-09-26T02:26:07.360Z,75.25
2017-09-26T02:28:34.859Z,75.02
2017-09-26T02:31:02.344Z,74.81
2017-09-26T02:33:29.826Z,74.61
2017-09-26T02:35:57.290Z,74.50
2017-09-26T02:38:24.738Z,74.67
2017-09-26T02:40:52.234Z,74.65
2017-09-26T02:43:19.731Z,74.75
2017-09-26T02:45:47.208Z,75.22
2017-09-26T02:48:14.699Z,75.49
2017-09-26T02:50:42.154Z,75.48
2017-09-26T02:53:09.662Z,75.35
2017-09-26T02:55:37.167Z,75.36
2017-09-26T02:58:04.633Z,75.30
2017-09-26T03:00:32.132Z,74.92
2017-09-26T03:02:59.603Z,75.20
2017-09-26T03:05:27.087Z,75.08
2017-09-26T03:07:54.554Z,74.85
2017-09-26T03:10:22.085Z,74.74
2017-09-26T03:12:50.286Z,74.81
2017-09-26T03:15:17.773Z,74.75
2017-09-26T03:17:45.255Z,75.07
2017-09-26T03:20:12.710Z,75.00
2017-09-26T03:22:40.342Z,75.01
2017-09-26T03:25:07.929Z,75.16
2017-09-26T03:27:35.388Z,74.91
2017-09-26T03:30:02.899Z,75.06
2017-09-26T03:32:30.354Z,74.85
2017-09-26T03:34:57.835Z,74.83
2017-09-26T03:37:25.334Z,75.09
2017-09-26T03:39:52.830Z,75.25
2017-09-26T03:42:20.293Z,75.05
2017-09-26T03:44:47.813Z,74.71
2017-09-26T03:47:15.281Z,74.50
2017-09-26T03:49:42.768Z,74.63
2017-09-26T03:52:10.249Z,74.72
2017-09-26T03:54:37.764Z,74.83
2017-09-26T03:57:05.239Z,74.82
2017-09-26T03:59:32.737Z,74.81
2017-09-26T04:02:00.254Z,74.93
2017-09-26T04:04:27.754Z,74.81
2017-09-26T04:06:55.227Z,74.78
2017-09-26T04:09:22.740Z,74.79
2017-09-26T04:11:50.224Z,74.64
2017-09-26T04:14:17.745Z,74.32
2017-09-26T04:16:45.197Z,74.44
2017-09-26T04:19:12.696Z,74.50
2017-09-26T04:21:40.197Z,74.50
2017-09-26T04:24:07.690Z,74.64
2017-09-26T04:26:35.196Z,74.71
2017-09-26T04:29:02.668Z,74.55
2017-09-26T04:31:30.162Z,74.54
2017-09-26T04:33:57.686Z,74.68
2017-09-26T04:36:25.176Z,74.94
2017-09-26T04:38:52.679Z,74.87
2017-09-26T04:41:20.153Z,74.83
2017-09-26T04:43:47.638Z,74.67
2017-09-26T04:46:15.106Z,74.78
2017-09-26T04:48:42.608Z,74.52
2017-09-26T04:51:10.132Z,74.28
2017-09-26T04:53:37.585Z,74.24
2017-09-26T04:56:05.218Z,74.29
2017-09-26T04:58:32.676Z,74.75
2017-09-26T05:01:00.201Z,73.97
2017-09-26T05:03:27.696Z,73.84
2017-09-26T05:05:55.215Z,73.92
2017-09-26T05:08:22.707Z,74.39
2017-09-26T05:10:50.164Z,74.55
2017-09-26T05:13:18.677Z,74.55
2017-09-26T05:15:46.199Z,74.61
2017-09-26T05:18:13.766Z,74.73
2017-09-26T05:20:41.253Z,74.87
2017-09-26T05:23:08.785Z,74.96
2017-09-26T05:25:36.261Z,74.97
2017-09-26T05:28:03.872Z,74.83
2017-09-26T05:30:31.354Z,74.52
2017-09-26T05:32:59.428Z,74.47
2017-09-26T05:35:26.885Z,74.75
2017-09-26T05:37:54.350Z,74.79
2017-09-26T05:40:21.851Z,75.43
2017-09-26T05:42:49.336Z,75.19
2017-09-26T05:45:17.611Z,74.90
2017-09-26T05:47:45.109Z,74.61
2017-09-26T05:50:12.618Z,75.17
2017-09-26T05:52:40.186Z,75.08
2017-09-26T05:55:07.741Z,74.99
2017-09-26T05:57:35.232Z,75.37
2017-09-26T06:00:02.819Z,75.50
2017-09-26T06:02:30.322Z,75.96
2017-09-26T06:04:57.823Z,75.93
2017-09-26T06:07:25.426Z,76.26
2017-09-26T06:09:52.991Z,76.81
2017-09-26T06:12:20.494Z,77.17
2017-09-26T06:14:48.476Z,77.39
2017-09-26T06:17:16.105Z,77.06
2017-09-26T06:19:43.565Z,77.01
2017-09-26T06:22:11.252Z,76.64
2017-09-26T06:24:38.839Z,76.31
2017-09-26T06:27:06.353Z,75.47
2017-09-26T06:29:33.874Z,75.31
2017-09-26T06:32:01.375Z,75.12
2017-09-26T06:34:28.892Z,74.98
2017-09-26T06:36:56.395Z,74.83
2017-09-26T06:39:23.933Z,74.67
2017-09-26T06:41:51.394Z,74.52
2017-09-26T06:44:18.896Z,74.70
2017-09-26T06:46:46.379Z,74.27
2017-09-26T06:49:13.936Z,74.14
2017-09-26T06:51:41.413Z,74.42
2017-09-26T06:54:08.903Z,74.49
2017-09-26T06:56:36.401Z,74.35
2017-09-26T06:59:03.941Z,74.32
2017-09-26T07:01:31.493Z,74.33
2017-09-26T07:03:59.051Z,74.28
2017-09-26T07:06:26.669Z,74.34
2017-09-26T07:08:54.164Z,74.41
2017-09-26T07:11:21.702Z,74.32
2017-09-26T07:13:49.201Z,74.08
2017-09-26T07:16:16.715Z,74.40
2017-09-26T07:18:44.185Z,73.64
2017-09-26T07:21:11.680Z,74.14
2017-09-26T07:23:39.172Z,74.58
2017-09-26T07:26:06.681Z,74.23
2017-09-26T07:28:34.251Z,73.76
2017-09-26T07:31:01.758Z,73.66
2017-09-26T07:33:29.244Z,73.67
2017-09-26T07:35:56.716Z,73.47
2017-09-26T07:38:24.211Z,73.48
2017-09-26T07:40:51.737Z,72.87
2017-09-26T07:43:19.275Z,72.44
2017-09-26T07:45:46.753Z,72.13
2017-09-26T07:48:14.331Z,72.26
2017-09-26T07:50:41.878Z,72.45
2017-09-26T07:53:09.358Z,72.61
2017-09-26T07:55:36.894Z,72.60
2017-09-26T07:58:04.379Z,72.52
2017-09-26T08:00:32.090Z,72.25
2017-09-26T08:02:59.561Z,71.85
2017-09-26T08:05:27.316Z,71.96
2017-09-26T08:07:55.116Z,71.68
2017-09-26T08:10:22.603Z,71.76
2017-09-26T08:12:50.148Z,71.84
2017-09-26T08:15:17.647Z,71.73
2017-09-26T08:17:45.156Z,71.59
2017-09-26T08:20:12.645Z,71.72
2017-09-26T08:22:40.161Z,71.96
2017-09-26T08:25:07.903Z,72.09
2017-09-26T08:27:35.392Z,71.88
2017-09-26T08:30:02.856Z,71.67
2017-09-26T08:32:30.922Z,71.37
2017-09-26T08:34:58.432Z,70.72
2017-09-26T08:37:25.934Z,70.63
2017-09-26T08:39:53.468Z,70.54
2017-09-26T08:42:20.953Z,70.20
2017-09-26T08:44:48.448Z,70.13
2017-09-26T08:47:15.923Z,70.37
2017-09-26T08:49:43.431Z,70.19
2017-09-26T08:52:10.907Z,69.92
2017-09-26T08:54:38.406Z,69.65
2017-09-26T08:57:05.923Z,69.74
2017-09-26T08:59:33.459Z,69.60
2017-09-26T09:02:00.957Z,69.55
2017-09-26T09:04:28.511Z,69.56
2017-09-26T09:06:56.037Z,69.55
2017-09-26T09:09:23.530Z,69.16
2017-09-26T09:11:51.071Z,69.55
2017-09-26T09:14:18.845Z,69.42
2017-09-26T09:16:46.342Z,69.17
2017-09-26T09:19:13.821Z,69.32
2017-09-26T09:21:41.352Z,69.09
2017-09-26T09:24:08.838Z,68.50
2017-09-26T09:26:36.366Z,68.53
2017-09-26T09:29:03.891Z,68.58
2017-09-26T09:31:31.423Z,68.16
2017-09-26T09:33:58.925Z,67.66
2017-09-26T09:36:26.406Z,67.26
2017-09-26T09:38:53.903Z,67.31
2017-09-26T09:41:21.422Z,66.56
2017-09-26T09:43:48.957Z,66.61
2017-09-26T09:46:16.525Z,66.45
2017-09-26T09:48:43.996Z,66.25
2017-09-26T09:51:11.546Z,66.65
2017-09-26T09:53:39.036Z,66.37
2017-09-26T09:56:06.576Z,66.19
2017-09-26T09:58:34.063Z,66.45
2017-09-26T10:01:01.563Z,66.05
2017-09-26T10:03:29.721Z,65.74
2017-09-26T10:05:57.241Z,65.51
2017-09-26T10:08:24.799Z,65.24
2017-09-26T10:10:52.346Z,65.18
2017-09-26T10:13:19.902Z,64.48
2017-09-26T10:15:47.398Z,64.22
2017-09-26T10:18:14.939Z,63.86
2017-09-26T10:20:42.438Z,64.13
2017-09-26T10:23:09.965Z,63.37
2017-09-26T10:25:37.526Z,62.53
2017-09-26T10:28:05.090Z,62.63
2017-09-26T10:30:32.591Z,61.78
2017-09-26T10:33:00.120Z,62.26
2017-09-26T10:35:27.656Z,62.18
2017-09-26T10:37:55.250Z,62.42
2017-09-26T10:40:22.778Z,61.79
2017-09-26T10:42:50.419Z,61.53
2017-09-26T10:45:17.943Z,61.91
2017-09-26T10:47:45.553Z,61.48
2017-09-26T10:50:13.056Z,61.36
2017-09-26T10:52:40.581Z,61.00
2017-09-26T10:55:08.120Z,60.60
2017-09-26T10:57:35.706Z,60.31
2017-09-26T11:00:03.222Z,59.95
2017-09-26T11:02:31.724Z,59.57
2017-09-26T11:04:59.446Z,58.58
2017-09-26T11:07:26.941Z,58.83
2017-09-26T11:09:54.500Z,57.26
2017-09-26T11:12:21.981Z,57.41
2017-09-26T11:14:49.524Z,56.96
2017-09-26T11:17:17.597Z,55.52
2017-09-26T11:19:45.112Z,55.56
2017-09-26T11:22:12.634Z,56.49
2017-09-26T11:24:40.158Z,56.75
2017-09-26T11:27:08.188Z,55.97
2017-09-26T11:29:35.693Z,56.30
2017-09-26T11:32:03.300Z,56.07
2017-09-26T11:34:31.693Z,55.32
2017-09-26T11:37:00.317Z,55.40
2017-09-26T11:39:27.802Z,55.76
2017-09-26T11:41:55.338Z,55.20
2017-09-26T11:44:22.857Z,55.54
2017-09-26T11:46:50.550Z,55.82
2017-09-26T11:49:18.030Z,55.41
2017-09-26T11:51:45.567Z,55.99
2017-09-26T11:54:13.142Z,55.69
2017-09-26T11:56:40.650Z,55.53
2017-09-26T11:59:08.174Z,55.56
2017-09-26T12:01:35.695Z,55.74
2017-09-26T12:04:03.228Z,55.82
2017-09-26T12:06:30.733Z,55.45
2017-09-26T12:08:58.646Z,55.19
2017-09-26T12:11:26.165Z,55.65
2017-09-26T12:13:59.304Z,56.39
2017-09-26T12:16:26.866Z,57.56
2017-09-26T12:18:54.420Z,57.54
2017-09-26T12:21:21.910Z,57.41
2017-09-26T12:23:49.382Z,57.15
2017-09-26T12:26:16.921Z,57.04
2017-09-26T12:28:44.391Z,56.65
2017-09-26T12:31:11.917Z,55.94
2017-09-26T12:33:39.401Z,56.00
2017-09-26T12:36:06.910Z,55.96
2017-09-26T12:38:34.459Z,56.39
2017-09-26T12:41:01.985Z,56.50
2017-09-26T12:43:29.569Z,56.33
2017-09-26T12:45:57.160Z,56.17
2017-09-26T12:48:24.674Z,56.58
2017-09-26T12:50:52.156Z,57.49
2017-09-26T12:53:19.660Z,58.85
2017-09-26T12:55:47.150Z,59.38
2017-09-26T12:58:14.727Z,59.46
2017-09-26T13:00:42.274Z,59.04
2017-09-26T13:03:09.800Z,58.77
2017-09-26T13:05:37.307Z,58.67
2017-09-26T13:08:04.841Z,59.06
2017-09-26T13:10:32.350Z,59.36
2017-09-26T13:12:59.841Z,59.73
2017-09-26T13:15:27.337Z,60.59
2017-09-26T13:17:54.897Z,60.96
2017-09-26T13:20:22.465Z,61.04
2017-09-26T13:22:49.917Z,61.90
2017-09-26T13:25:17.416Z,62.15
2017-09-26T13:27:44.940Z,62.14
2017-09-26T13:30:12.420Z,61.48
2017-09-26T13:32:40.768Z,61.19
2017-09-26T13:35:08.282Z,62.12
2017-09-26T13:37:35.841Z,62.86
2017-09-26T13:40:03.368Z,64.41
2017-09-26T13:42:30.985Z,64.69
2017-09-26T13:44:58.502Z,64.68
2017-09-26T13:47:26.014Z,66.11
2017-09-26T13:49:53.477Z,64.42
2017-09-26T13:52:20.970Z,65.37
2017-09-26T13:54:49.057Z,64.46
2017-09-26T13:57:16.572Z,64.45
2017-09-26T13:59:44.048Z,63.99
2017-09-26T14:02:11.553Z,67.34
2017-09-26T14:04:39.068Z,67.03
2017-09-26T14:07:06.602Z,68.77
2017-09-26T14:09:34.353Z,67.18
2017-09-26T14:12:01.877Z,66.65
2017-09-26T14:14:29.405Z,67.53
2017-09-26T14:16:57.798Z,65.77
2017-09-26T14:19:25.339Z,64.95
2017-09-26T14:21:52.788Z,65.19
2017-09-26T14:24:20.348Z,65.35
2017-09-26T14:26:48.685Z,62.50
2017-09-26T14:29:16.232Z,63.22
2017-09-26T14:31:43.746Z,62.75
2017-09-26T14:34:11.341Z,63.60
2017-09-26T14:36:38.852Z,62.78
2017-09-26T14:39:06.445Z,63.94
2017-09-26T14:41:34.006Z,62.67
2017-09-26T14:44:01.535Z,63.25
2017-09-26T14:46:29.050Z,63.55
2017-09-26T14:48:56.564Z,63.88
2017-09-26T14:51:24.713Z,63.86
2017-09-26T14:53:52.274Z,62.88
2017-09-26T14:56:19.954Z,63.85
2017-09-26T14:58:47.477Z,64.15
2017-09-26T15:01:15.087Z,64.27
2017-09-26T15:03:42.606Z,63.76
2017-09-26T15:06:10.788Z,63.43
2017-09-26T15:08:38.288Z,63.28
2017-09-26T15:11:05.773Z,63.78
2017-09-26T15:13:33.273Z,63.64
2017-09-26T15:16:00.791Z,63.68
2017-09-26T15:18:28.390Z,64.02
2017-09-26T15:20:55.933Z,64.68
2017-09-26T15:23:24.423Z,64.35
2017-09-26T15:25:51.951Z,65.01
2017-09-26T15:28:19.486Z,64.46
2017-09-26T15:30:47.006Z,65.56
2017-09-26T15:33:14.490Z,65.12
2017-09-26T15:35:42.016Z,65.09
2017-09-26T15:38:09.589Z,65.26
2017-09-26T15:40:37.102Z,64.78
2017-09-26T15:43:04.595Z,64.79
2017-09-26T15:45:32.060Z,64.32
2017-09-26T15:47:59.549Z,64.37
2017-09-26T15:50:27.010Z,64.49
2017-09-26T15:52:54.531Z,64.60
2017-09-26T15:55:22.004Z,64.88
2017-09-26T15:57:49.542Z,64.91
2017-09-26T16:00:17.031Z,65.16
2017-09-26T16:02:44.553Z,65.34
2017-09-26T16:05:12.003Z,65.29
2017-09-26T16:07:39.520Z,65.50
2017-09-26T16:10:06.994Z,65.46
2017-09-26T16:12:34.497Z,65.27
2017-09-26T16:15:01.998Z,65.01
2017-09-26T16:17:29.449Z,64.74
2017-09-26T16:19:56.958Z,64.87
2017-09-26T16:22:24.423Z,64.67
2017-09-26T16:24:51.905Z,64.61
2017-09-26T16:27:19.372Z,65.17
2017-09-26T16:29:46.873Z,64.31
2017-09-26T16:32:14.329Z,64.02
2017-09-26T16:34:41.805Z,64.05
2017-09-26T16:37:09.276Z,63.81
2017-09-26T16:39:37.135Z,64.06
2017-09-26T16:42:04.616Z,63.87
2017-09-26T16:44:32.091Z,64.05
2017-09-26T16:46:59.583Z,64.16
2017-09-26T16:49:27.105Z,64.32
2017-09-26T16:51:54.601Z,64.02
2017-09-26T16:54:22.069Z,63.69
2017-09-26T16:56:49.594Z,63.97
2017-09-26T16:59:17.069Z,63.96
2017-09-26T17:01:44.566Z,64.05
2017-09-26T17:04:12.048Z,64.32
2017-09-26T17:06:39.522Z,64.68
2017-09-26T17:09:07.012Z,64.62
2017-09-26T17:11:34.497Z,64.65
2017-09-26T17:14:02.005Z,64.76
2017-09-26T17:16:29.474Z,64.95
2017-09-26T17:18:56.977Z,65.07
2017-09-26T17:21:24.467Z,65.35
2017-09-26T17:23:51.924Z,65.57
2017-09-26T17:26:19.497Z,65.77
2017-09-26T17:28:47.048Z,65.82
2017-09-26T17:31:14.578Z,65.91
2017-09-26T17:33:42.060Z,65.92
2017-09-26T17:36:09.550Z,66.18
2017-09-26T17:38:37.007Z,66.61
2017-09-26T17:41:04.495Z,66.60
2017-09-26T17:43:32.003Z,66.63
2017-09-26T17:45:59.515Z,66.78
2017-09-26T17:48:26.992Z,66.96
2017-09-26T17:50:54.505Z,67.07
2017-09-26T17:53:21.990Z,67.42
2017-09-26T17:55:49.489Z,67.71
2017-09-26T17:58:17.011Z,67.93
2017-09-26T18:00:44.493Z,67.86
2017-09-26T18:03:12.024Z,68.20
2017-09-26T18:05:39.504Z,68.45
2017-09-26T18:08:07.032Z,68.43
2017-09-26T18:10:34.488Z,68.60
2017-09-26T18:13:01.994Z,69.09
2017-09-26T18:15:29.500Z,69.72
2017-09-26T18:17:56.990Z,70.11
2017-09-26T18:20:24.515Z,70.50
2017-09-26T18:22:52.062Z,70.52
2017-09-26T18:25:19.547Z,70.95
2017-09-26T18:27:47.951Z,72.01
2017-09-26T18:30:15.444Z,72.62
2017-09-26T18:32:42.960Z,73.57
2017-09-26T18:35:10.453Z,74.26
2017-09-26T18:37:38.006Z,74.54
2017-09-26T18:40:05.524Z,74.43
2017-09-26T18:42:33.037Z,74.52
2017-09-26T18:45:00.544Z,74.78
2017-09-26T18:47:28.069Z,75.00
2017-09-26T18:49:55.546Z,75.20
2017-09-26T18:52:23.113Z,75.24
2017-09-26T18:54:50.612Z,75.13
2017-09-26T18:57:18.140Z,74.93
2017-09-26T18:59:45.669Z,74.81
2017-09-26T19:02:13.185Z,74.88
2017-09-26T19:04:40.706Z,75.10
2017-09-26T19:07:08.183Z,75.28
2017-09-26T19:09:35.776Z,75.36
2017-09-26T19:12:03.261Z,75.56
2017-09-26T19:14:30.757Z,75.47
2017-09-26T19:16:58.248Z,75.63
2017-09-26T19:19:25.768Z,75.50
2017-09-26T19:21:53.253Z,75.55
2017-09-26T19:24:20.924Z,75.62
2017-09-26T19:26:48.452Z,75.74
2017-09-26T19:29:15.942Z,75.69
2017-09-26T19:31:43.492Z,75.65
2017-09-26T19:34:10.979Z,75.66
2017-09-26T19:36:38.500Z,76.10
2017-09-26T19:39:05.970Z,75.81
2017-09-26T19:41:33.478Z,76.13
2017-09-26T19:44:00.942Z,76.17
2017-09-26T19:46:28.479Z,76.18
2017-09-26T19:48:56.005Z,76.42
2017-09-26T19:51:23.471Z,76.82
2017-09-26T19:53:51.013Z,76.87
2017-09-26T19:56:18.531Z,76.99
2017-09-26T19:58:46.088Z,77.06
2017-09-26T20:01:13.564Z,77.30
2017-09-26T20:03:41.085Z,77.30
2017-09-26T20:06:08.565Z,77.23
2017-09-26T20:08:36.182Z,76.54
2017-09-26T20:11:04.680Z,76.40
2017-09-26T20:13:32.181Z,76.56
2017-09-26T20:15:59.726Z,77.05
2017-09-26T20:18:27.206Z,77.17
2017-09-26T20:20:54.743Z,77.24
2017-09-26T20:23:22.210Z,77.33
2017-09-26T20:25:49.759Z,77.62
2017-09-26T20:28:17.244Z,77.67
2017-09-26T20:30:44.750Z,77.85
2017-09-26T20:33:12.245Z,77.87
2017-09-26T20:35:40.100Z,77.71
2017-09-26T20:38:07.599Z,77.68
2017-09-26T20:40:35.079Z,77.77
2017-09-26T20:43:02.721Z,77.83
2017-09-26T20:45:30.234Z,78.33
2017-09-26T20:47:57.697Z,78.37
2017-09-26T20:50:25.197Z,78.57
2017-09-26T20:52:52.714Z,78.27
2017-09-26T20:55:20.177Z,78.18
2017-09-26T20:57:47.690Z,78.20
2017-09-26T21:00:15.184Z,78.60
2017-09-26T21:02:42.853Z,78.63
2017-09-26T21:05:10.361Z,78.54
2017-09-26T21:07:37.821Z,78.65
2017-09-26T21:10:05.349Z,78.72
2017-09-26T21:12:32.819Z,78.65
2017-09-26T21:15:00.343Z,78.73
2017-09-26T21:17:27.823Z,78.77
2017-09-26T21:19:55.329Z,78.38
2017-09-26T21:22:22.790Z,78.16
2017-09-26T21:24:50.284Z,78.16
2017-09-26T21:27:17.905Z,78.25
2017-09-26T21:29:45.362Z,78.14
2017-09-26T21:32:13.013Z,78.11
2017-09-26T21:34:40.470Z,78.15
2017-09-26T21:37:07.937Z,78.23
2017-09-26T21:39:35.537Z,78.27
2017-09-26T21:42:03.158Z,78.53
2017-09-26T21:44:30.620Z,78.46
2017-09-26T21:46:58.129Z,78.31
2017-09-26T21:49:25.597Z,78.48
2017-09-26T21:51:53.069Z,78.23
2017-09-26T21:54:20.564Z,78.15
2017-09-26T21:56:48.049Z,78.46
2017-09-26T21:59:15.562Z,78.64
2017-09-26T22:01:43.025Z,78.62
2017-09-26T22:04:10.481Z,78.53
2017-09-26T22:06:37.967Z,78.44
2017-09-26T22:09:05.424Z,78.44
2017-09-26T22:11:32.937Z,78.92
2017-09-26T22:14:00.410Z,79.03
2017-09-26T22:16:28.015Z,79.05
2017-09-26T22:18:55.486Z,78.97
2017-09-26T22:21:22.944Z,78.92
2017-09-26T22:23:50.432Z,78.92
2017-09-26T22:26:17.928Z,78.81
2017-09-26T22:28:45.413Z,78.68
2017-09-26T22:31:12.867Z,78.40
2017-09-26T22:33:40.373Z,78.35
2017-09-26T22:36:07.858Z,78.60
2017-09-26T22:38:35.410Z,79.14
2017-09-26T22:41:02.871Z,79.20
2017-09-26T22:43:30.366Z,79.02
2017-09-26T22:45:57.842Z,78.86
2017-09-26T22:48:25.293Z,78.71
2017-09-26T22:50:52.792Z,78.60
2017-09-26T22:53:20.278Z,78.65
2017-09-26T22:55:47.743Z,78.81
2017-09-26T22:58:15.207Z,79.00
2017-09-26T23:00:42.725Z,79.12
2017-09-26T23:03:10.193Z,79.23
2017-09-26T23:05:38.051Z,79.21
2017-09-26T23:08:05.519Z,78.92
2017-09-26T23:10:32.989Z,78.92
2017-09-26T23:13:00.458Z,79.00
2017-09-26T23:15:27.912Z,79.12
2017-09-26T23:17:55.398Z,79.16
2017-09-26T23:20:22.861Z,79.12
2017-09-26T23:22:50.370Z,79.19
2017-09-26T23:25:17.862Z,79.20
2017-09-26T23:27:45.717Z,79.45
2017-09-26T23:30:13.173Z,79.99
2017-09-26T23:32:40.641Z,80.20
2017-09-26T23:35:08.169Z,80.07
2017-09-26T23:37:35.657Z,79.93
2017-09-26T23:40:03.181Z,80.06
2017-09-26T23:42:30.647Z,79.92
2017-09-26T23:44:58.125Z,79.84
2017-09-26T23:47:25.608Z,80.06
2017-09-26T23:49:53.097Z,79.89
2017-09-26T23:52:20.578Z,79.95
2017-09-26T23:54:48.172Z,80.26
2017-09-26T23:57:15.628Z,80.52
2017-09-26T23:59:43.102Z,80.79
